Terminal Aerodrome Forecast
Issued by NWS Milwaukee/Sullivan, WI

Home | Current Version | Previous Version | Text Only | Print | Product List | Glossary On
Versions: 1 2 3 4 5 6 7 8 9 10 11 12 13 14 15 16 17 18 19 20 21 22 23 24 25
000
FTUS43 KMKX 281530 AAA
TAFMSN
TAF AMD
KMSN 281530Z 2816/2912 05009KT P6SM BKN021 BKN028
     FM281800 04006KT P6SM BKN025
     FM282100 05006KT P6SM FEW040
     FM290800 06005KT 5SM BR SCT035
     FM291100 06006KT 2SM BR SCT020=

USA.gov is the U.S. government's official web portal to all federal, state and local government web resources and services.